sensor_id;sensor_type;location;lat;lon;timestamp;P1;durP1;ratioP1;P2;durP2;ratioP2
30020;SDS011;16861;52.294;7.760;2023-04-06T00:00:33;5.00;;;3.70;;
30020;SDS011;16861;52.294;7.760;2023-04-06T00:02:59;8.02;;;4.03;;
30020;SDS011;16861;52.294;7.760;2023-04-06T00:05:26;8.15;;;3.75;;
30020;SDS011;16861;52.294;7.760;2023-04-06T00:07:54;6.80;;;3.88;;
30020;SDS011;16861;52.294;7.760;2023-04-06T00:10:22;5.80;;;3.80;;
30020;SDS011;16861;52.294;7.760;2023-04-06T00:12:48;6.28;;;3.58;;
30020;SDS011;16861;52.294;7.760;2023-04-06T00:15:15;7.10;;;3.97;;
30020;SDS011;16861;52.294;7.760;2023-04-06T00:17:41;6.18;;;4.15;;
30020;SDS011;16861;52.294;7.760;2023-04-06T00:20:08;6.30;;;4.03;;
30020;SDS011;16861;52.294;7.760;2023-04-06T00:22:35;5.45;;;3.80;;
30020;SDS011;16861;52.294;7.760;2023-04-06T00:25:02;6.18;;;3.70;;
30020;SDS011;16861;52.294;7.760;2023-04-06T00:27:28;5.72;;;3.83;;
30020;SDS011;16861;52.294;7.760;2023-04-06T00:29:55;5.05;;;3.90;;
30020;SDS011;16861;52.294;7.760;2023-04-06T00:32:22;8.73;;;4.88;;
30020;SDS011;16861;52.294;7.760;2023-04-06T00:34:48;6.38;;;4.10;;
30020;SDS011;16861;52.294;7.760;2023-04-06T00:37:15;6.53;;;4.38;;
30020;SDS011;16861;52.294;7.760;2023-04-06T00:39:42;6.00;;;4.00;;
30020;SDS011;16861;52.294;7.760;2023-04-06T00:42:12;7.80;;;4.43;;
30020;SDS011;16861;52.294;7.760;2023-04-06T00:44:41;5.72;;;4.25;;
30020;SDS011;16861;52.294;7.760;2023-04-06T00:47:08;6.47;;;4.38;;
30020;SDS011;16861;52.294;7.760;2023-04-06T00:49:35;6.97;;;4.70;;
30020;SDS011;16861;52.294;7.760;2023-04-06T00:52:01;7.95;;;3.92;;
30020;SDS011;16861;52.294;7.760;2023-04-06T00:54:28;8.20;;;4.70;;
30020;SDS011;16861;52.294;7.760;2023-04-06T00:56:55;6.78;;;4.47;;
30020;SDS011;16861;52.294;7.760;2023-04-06T00:59:22;9.07;;;4.63;;
30020;SDS011;16861;52.294;7.760;2023-04-06T01:01:48;11.48;;;5.05;;
30020;SDS011;16861;52.294;7.760;2023-04-06T01:04:15;6.75;;;4.38;;
30020;SDS011;16861;52.294;7.760;2023-04-06T01:06:42;8.02;;;4.90;;
30020;SDS011;16861;52.294;7.760;2023-04-06T01:09:08;8.63;;;4.78;;
30020;SDS011;16861;52.294;7.760;2023-04-06T01:11:35;8.27;;;4.35;;
30020;SDS011;16861;52.294;7.760;2023-04-06T01:14:02;6.30;;;4.78;;
30020;SDS011;16861;52.294;7.760;2023-04-06T01:16:29;7.00;;;5.10;;
30020;SDS011;16861;52.294;7.760;2023-04-06T01:18:56;7.38;;;5.20;;
30020;SDS011;16861;52.294;7.760;2023-04-06T01:21:23;7.30;;;4.78;;
30020;SDS011;16861;52.294;7.760;2023-04-06T01:23:49;7.43;;;5.10;;
30020;SDS011;16861;52.294;7.760;2023-04-06T01:26:16;10.15;;;5.43;;
30020;SDS011;16861;52.294;7.760;2023-04-06T01:28:42;16.65;;;5.25;;
30020;SDS011;16861;52.294;7.760;2023-04-06T01:31:10;7.78;;;4.72;;
30020;SDS011;16861;52.294;7.760;2023-04-06T01:33:37;7.75;;;4.80;;
30020;SDS011;16861;52.294;7.760;2023-04-06T01:36:03;7.28;;;4.50;;
30020;SDS011;16861;52.294;7.760;2023-04-06T01:38:30;6.70;;;4.20;;
30020;SDS011;16861;52.294;7.760;2023-04-06T01:40:57;6.15;;;4.60;;
30020;SDS011;16861;52.294;7.760;2023-04-06T01:43:23;7.78;;;4.82;;
30020;SDS011;16861;52.294;7.760;2023-04-06T01:45:50;6.07;;;4.75;;
30020;SDS011;16861;52.294;7.760;2023-04-06T01:48:18;7.50;;;4.90;;
30020;SDS011;16861;52.294;7.760;2023-04-06T01:50:44;7.97;;;4.60;;
30020;SDS011;16861;52.294;7.760;2023-04-06T01:53:11;10.18;;;5.00;;
30020;SDS011;16861;52.294;7.760;2023-04-06T01:55:38;6.15;;;4.57;;
30020;SDS011;16861;52.294;7.760;2023-04-06T01:58:04;6.95;;;4.90;;
30020;SDS011;16861;52.294;7.760;2023-04-06T02:00:31;6.25;;;4.70;;
30020;SDS011;16861;52.294;7.760;2023-04-06T02:02:57;6.22;;;5.00;;
30020;SDS011;16861;52.294;7.760;2023-04-06T02:05:24;6.22;;;5.10;;
30020;SDS011;16861;52.294;7.760;2023-04-06T02:07:51;6.95;;;4.65;;
30020;SDS011;16861;52.294;7.760;2023-04-06T02:10:18;5.57;;;4.38;;
30020;SDS011;16861;52.294;7.760;2023-04-06T02:12:45;6.45;;;4.88;;
30020;SDS011;16861;52.294;7.760;2023-04-06T02:15:11;7.57;;;4.35;;
30020;SDS011;16861;52.294;7.760;2023-04-06T02:17:39;10.85;;;4.75;;
30020;SDS011;16861;52.294;7.760;2023-04-06T02:20:07;8.38;;;4.93;;
30020;SDS011;16861;52.294;7.760;2023-04-06T02:22:34;6.65;;;4.32;;
30020;SDS011;16861;52.294;7.760;2023-04-06T02:25:01;8.73;;;5.03;;
30020;SDS011;16861;52.294;7.760;2023-04-06T02:27:28;5.93;;;4.65;;
30020;SDS011;16861;52.294;7.760;2023-04-06T02:29:55;23.83;;;6.30;;
30020;SDS011;16861;52.294;7.760;2023-04-06T02:32:21;7.55;;;4.78;;
30020;SDS011;16861;52.294;7.760;2023-04-06T02:34:48;7.60;;;5.22;;
30020;SDS011;16861;52.294;7.760;2023-04-06T02:37:14;6.93;;;5.07;;
30020;SDS011;16861;52.294;7.760;2023-04-06T02:39:41;6.95;;;4.88;;
30020;SDS011;16861;52.294;7.760;2023-04-06T02:42:07;8.65;;;5.18;;
30020;SDS011;16861;52.294;7.760;2023-04-06T02:44:34;7.45;;;5.28;;
30020;SDS011;16861;52.294;7.760;2023-04-06T02:47:01;6.93;;;4.68;;
30020;SDS011;16861;52.294;7.760;2023-04-06T02:49:27;12.00;;;5.53;;
30020;SDS011;16861;52.294;7.760;2023-04-06T02:51:54;8.48;;;5.05;;
30020;SDS011;16861;52.294;7.760;2023-04-06T02:54:20;8.48;;;5.70;;
30020;SDS011;16861;52.294;7.760;2023-04-06T02:56:47;8.18;;;5.13;;
30020;SDS011;16861;52.294;7.760;2023-04-06T02:59:13;8.23;;;4.90;;
30020;SDS011;16861;52.294;7.760;2023-04-06T03:01:40;7.35;;;4.45;;
30020;SDS011;16861;52.294;7.760;2023-04-06T03:04:07;8.85;;;5.10;;
30020;SDS011;16861;52.294;7.760;2023-04-06T03:06:33;7.80;;;5.15;;
30020;SDS011;16861;52.294;7.760;2023-04-06T03:09:00;6.60;;;4.75;;
30020;SDS011;16861;52.294;7.760;2023-04-06T03:11:26;10.25;;;5.82;;
30020;SDS011;16861;52.294;7.760;2023-04-06T03:13:53;8.75;;;5.25;;
30020;SDS011;16861;52.294;7.760;2023-04-06T03:16:19;6.70;;;4.93;;
30020;SDS011;16861;52.294;7.760;2023-04-06T03:18:46;6.65;;;5.18;;
30020;SDS011;16861;52.294;7.760;2023-04-06T03:21:13;22.63;;;5.95;;
30020;SDS011;16861;52.294;7.760;2023-04-06T03:23:41;29.92;;;7.22;;
30020;SDS011;16861;52.294;7.760;2023-04-06T03:26:08;11.40;;;5.25;;
30020;SDS011;16861;52.294;7.760;2023-04-06T03:28:35;8.07;;;5.20;;
30020;SDS011;16861;52.294;7.760;2023-04-06T03:31:02;15.75;;;5.38;;
30020;SDS011;16861;52.294;7.760;2023-04-06T03:33:28;11.15;;;4.95;;
30020;SDS011;16861;52.294;7.760;2023-04-06T03:35:55;9.75;;;5.57;;
30020;SDS011;16861;52.294;7.760;2023-04-06T03:38:22;9.23;;;5.57;;
30020;SDS011;16861;52.294;7.760;2023-04-06T03:40:48;8.70;;;5.53;;
30020;SDS011;16861;52.294;7.760;2023-04-06T03:43:15;9.45;;;5.03;;
30020;SDS011;16861;52.294;7.760;2023-04-06T03:45:41;7.05;;;5.45;;
30020;SDS011;16861;52.294;7.760;2023-04-06T03:48:08;8.38;;;5.28;;
30020;SDS011;16861;52.294;7.760;2023-04-06T03:50:34;11.90;;;5.57;;
30020;SDS011;16861;52.294;7.760;2023-04-06T03:53:01;8.45;;;5.20;;
30020;SDS011;16861;52.294;7.760;2023-04-06T03:55:29;21.02;;;6.70;;
30020;SDS011;16861;52.294;7.760;2023-04-06T03:57:56;7.50;;;5.40;;
30020;SDS011;16861;52.294;7.760;2023-04-06T04:00:22;7.57;;;5.55;;
30020;SDS011;16861;52.294;7.760;2023-04-06T04:02:49;7.32;;;5.25;;
30020;SDS011;16861;52.294;7.760;2023-04-06T04:05:16;9.02;;;5.38;;
30020;SDS011;16861;52.294;7.760;2023-04-06T04:07:42;9.10;;;5.57;;
30020;SDS011;16861;52.294;7.760;2023-04-06T04:10:09;8.95;;;5.65;;
30020;SDS011;16861;52.294;7.760;2023-04-06T04:12:36;10.07;;;6.13;;
30020;SDS011;16861;52.294;7.760;2023-04-06T04:15:02;7.53;;;5.47;;
30020;SDS011;16861;52.294;7.760;2023-04-06T04:17:29;8.40;;;5.55;;
30020;SDS011;16861;52.294;7.760;2023-04-06T04:19:56;20.45;;;6.57;;
30020;SDS011;16861;52.294;7.760;2023-04-06T04:22:22;12.88;;;5.80;;
30020;SDS011;16861;52.294;7.760;2023-04-06T04:24:49;10.93;;;6.43;;
30020;SDS011;16861;52.294;7.760;2023-04-06T04:27:15;11.00;;;6.40;;
30020;SDS011;16861;52.294;7.760;2023-04-06T04:29:42;10.90;;;6.35;;
30020;SDS011;16861;52.294;7.760;2023-04-06T04:32:09;15.02;;;7.10;;
30020;SDS011;16861;52.294;7.760;2023-04-06T04:34:36;8.75;;;5.85;;
30020;SDS011;16861;52.294;7.760;2023-04-06T04:37:06;10.35;;;6.40;;
30020;SDS011;16861;52.294;7.760;2023-04-06T04:39:32;9.88;;;6.43;;
30020;SDS011;16861;52.294;7.760;2023-04-06T04:41:59;9.05;;;6.13;;
30020;SDS011;16861;52.294;7.760;2023-04-06T04:44:26;22.58;;;7.30;;
30020;SDS011;16861;52.294;7.760;2023-04-06T04:46:52;11.75;;;6.68;;
30020;SDS011;16861;52.294;7.760;2023-04-06T04:49:19;10.20;;;5.85;;
30020;SDS011;16861;52.294;7.760;2023-04-06T04:51:45;12.52;;;6.60;;
30020;SDS011;16861;52.294;7.760;2023-04-06T04:54:12;9.27;;;6.72;;
30020;SDS011;16861;52.294;7.760;2023-04-06T04:56:38;47.53;;;7.85;;
30020;SDS011;16861;52.294;7.760;2023-04-06T04:59:05;15.65;;;7.57;;
30020;SDS011;16861;52.294;7.760;2023-04-06T05:01:32;9.63;;;5.93;;
30020;SDS011;16861;52.294;7.760;2023-04-06T05:04:16;10.07;;;6.78;;
30020;SDS011;16861;52.294;7.760;2023-04-06T05:06:43;12.23;;;6.32;;
30020;SDS011;16861;52.294;7.760;2023-04-06T05:09:09;11.15;;;6.40;;
30020;SDS011;16861;52.294;7.760;2023-04-06T05:11:36;7.43;;;5.15;;
30020;SDS011;16861;52.294;7.760;2023-04-06T05:14:02;9.98;;;6.10;;
30020;SDS011;16861;52.294;7.760;2023-04-06T05:16:29;20.95;;;6.97;;
30020;SDS011;16861;52.294;7.760;2023-04-06T05:18:56;13.48;;;6.78;;
30020;SDS011;16861;52.294;7.760;2023-04-06T05:21:22;10.75;;;6.35;;
30020;SDS011;16861;52.294;7.760;2023-04-06T05:23:52;26.98;;;7.35;;
30020;SDS011;16861;52.294;7.760;2023-04-06T05:26:20;10.70;;;6.57;;
30020;SDS011;16861;52.294;7.760;2023-04-06T05:28:46;9.38;;;6.32;;
30020;SDS011;16861;52.294;7.760;2023-04-06T05:31:13;11.75;;;6.40;;
30020;SDS011;16861;52.294;7.760;2023-04-06T05:33:40;8.80;;;6.40;;
30020;SDS011;16861;52.294;7.760;2023-04-06T05:36:07;9.77;;;5.97;;
30020;SDS011;16861;52.294;7.760;2023-04-06T05:38:34;12.65;;;6.38;;
30020;SDS011;16861;52.294;7.760;2023-04-06T05:41:01;9.38;;;6.28;;
30020;SDS011;16861;52.294;7.760;2023-04-06T05:43:28;11.10;;;6.32;;
30020;SDS011;16861;52.294;7.760;2023-04-06T05:45:54;10.27;;;6.45;;
30020;SDS011;16861;52.294;7.760;2023-04-06T05:48:21;11.23;;;6.40;;
30020;SDS011;16861;52.294;7.760;2023-04-06T05:50:48;11.65;;;6.55;;
30020;SDS011;16861;52.294;7.760;2023-04-06T05:53:16;11.07;;;6.20;;
30020;SDS011;16861;52.294;7.760;2023-04-06T05:55:43;10.20;;;6.68;;
30020;SDS011;16861;52.294;7.760;2023-04-06T05:58:10;24.42;;;7.45;;
30020;SDS011;16861;52.294;7.760;2023-04-06T06:00:36;18.20;;;6.55;;
30020;SDS011;16861;52.294;7.760;2023-04-06T06:03:03;13.13;;;6.60;;
30020;SDS011;16861;52.294;7.760;2023-04-06T06:05:31;9.82;;;6.45;;
30020;SDS011;16861;52.294;7.760;2023-04-06T06:07:58;11.85;;;6.55;;
30020;SDS011;16861;52.294;7.760;2023-04-06T06:10:25;11.18;;;6.35;;
30020;SDS011;16861;52.294;7.760;2023-04-06T06:12:51;10.60;;;6.93;;
30020;SDS011;16861;52.294;7.760;2023-04-06T06:15:18;14.82;;;7.30;;
30020;SDS011;16861;52.294;7.760;2023-04-06T06:17:45;9.07;;;6.30;;
30020;SDS011;16861;52.294;7.760;2023-04-06T06:20:11;12.13;;;7.30;;
30020;SDS011;16861;52.294;7.760;2023-04-06T06:22:38;11.68;;;6.35;;
30020;SDS011;16861;52.294;7.760;2023-04-06T06:25:06;16.63;;;6.82;;
30020;SDS011;16861;52.294;7.760;2023-04-06T06:27:33;21.15;;;7.63;;
30020;SDS011;16861;52.294;7.760;2023-04-06T06:29:59;10.05;;;7.03;;
30020;SDS011;16861;52.294;7.760;2023-04-06T06:32:26;10.05;;;6.78;;
30020;SDS011;16861;52.294;7.760;2023-04-06T06:34:53;10.38;;;6.80;;
30020;SDS011;16861;52.294;7.760;2023-04-06T06:37:19;9.75;;;6.82;;
30020;SDS011;16861;52.294;7.760;2023-04-06T06:39:46;19.38;;;7.45;;
30020;SDS011;16861;52.294;7.760;2023-04-06T06:42:13;9.90;;;6.25;;
30020;SDS011;16861;52.294;7.760;2023-04-06T06:44:40;10.45;;;6.50;;
30020;SDS011;16861;52.294;7.760;2023-04-06T06:47:06;19.00;;;7.47;;
30020;SDS011;16861;52.294;7.760;2023-04-06T06:49:33;10.38;;;6.47;;
30020;SDS011;16861;52.294;7.760;2023-04-06T06:52:00;10.25;;;6.90;;
30020;SDS011;16861;52.294;7.760;2023-04-06T06:54:26;13.95;;;7.00;;
30020;SDS011;16861;52.294;7.760;2023-04-06T06:56:53;11.50;;;6.43;;
30020;SDS011;16861;52.294;7.760;2023-04-06T06:59:20;12.13;;;6.40;;
30020;SDS011;16861;52.294;7.760;2023-04-06T07:01:48;8.85;;;6.55;;
30020;SDS011;16861;52.294;7.760;2023-04-06T07:04:16;10.60;;;6.68;;
30020;SDS011;16861;52.294;7.760;2023-04-06T07:06:42;14.25;;;7.95;;
30020;SDS011;16861;52.294;7.760;2023-04-06T07:09:09;15.48;;;7.20;;
30020;SDS011;16861;52.294;7.760;2023-04-06T07:11:36;12.02;;;7.43;;
30020;SDS011;16861;52.294;7.760;2023-04-06T07:14:03;10.50;;;6.78;;
30020;SDS011;16861;52.294;7.760;2023-04-06T07:16:29;14.30;;;7.70;;
30020;SDS011;16861;52.294;7.760;2023-04-06T07:18:56;11.30;;;7.38;;
30020;SDS011;16861;52.294;7.760;2023-04-06T07:21:23;11.27;;;7.30;;
30020;SDS011;16861;52.294;7.760;2023-04-06T07:23:49;12.38;;;7.05;;
30020;SDS011;16861;52.294;7.760;2023-04-06T07:26:17;15.80;;;7.82;;
30020;SDS011;16861;52.294;7.760;2023-04-06T07:28:43;11.52;;;7.53;;
30020;SDS011;16861;52.294;7.760;2023-04-06T07:31:10;13.02;;;8.20;;
30020;SDS011;16861;52.294;7.760;2023-04-06T07:33:37;13.05;;;7.70;;
30020;SDS011;16861;52.294;7.760;2023-04-06T07:36:04;13.07;;;8.18;;
30020;SDS011;16861;52.294;7.760;2023-04-06T07:38:31;11.45;;;7.75;;
30020;SDS011;16861;52.294;7.760;2023-04-06T07:40:58;14.35;;;7.63;;
30020;SDS011;16861;52.294;7.760;2023-04-06T07:43:24;10.55;;;8.02;;
30020;SDS011;16861;52.294;7.760;2023-04-06T07:45:51;11.10;;;7.60;;
30020;SDS011;16861;52.294;7.760;2023-04-06T07:48:18;11.25;;;7.45;;
30020;SDS011;16861;52.294;7.760;2023-04-06T07:50:44;17.80;;;8.63;;
30020;SDS011;16861;52.294;7.760;2023-04-06T07:53:11;13.15;;;8.38;;
30020;SDS011;16861;52.294;7.760;2023-04-06T07:55:38;17.65;;;8.40;;
30020;SDS011;16861;52.294;7.760;2023-04-06T07:58:05;13.93;;;7.88;;
30020;SDS011;16861;52.294;7.760;2023-04-06T08:00:31;12.73;;;7.65;;
30020;SDS011;16861;52.294;7.760;2023-04-06T08:02:58;11.23;;;7.65;;
30020;SDS011;16861;52.294;7.760;2023-04-06T08:05:24;11.52;;;7.72;;
30020;SDS011;16861;52.294;7.760;2023-04-06T08:07:51;16.98;;;8.10;;
30020;SDS011;16861;52.294;7.760;2023-04-06T08:10:18;14.63;;;8.20;;
30020;SDS011;16861;52.294;7.760;2023-04-06T08:12:44;11.82;;;7.07;;
30020;SDS011;16861;52.294;7.760;2023-04-06T08:15:11;15.88;;;8.30;;
30020;SDS011;16861;52.294;7.760;2023-04-06T08:17:37;10.63;;;7.68;;
30020;SDS011;16861;52.294;7.760;2023-04-06T08:20:04;11.73;;;8.02;;
30020;SDS011;16861;52.294;7.760;2023-04-06T08:22:31;12.77;;;8.02;;
30020;SDS011;16861;52.294;7.760;2023-04-06T08:24:58;11.13;;;7.40;;
30020;SDS011;16861;52.294;7.760;2023-04-06T08:27:24;11.00;;;7.72;;
30020;SDS011;16861;52.294;7.760;2023-04-06T08:29:51;15.63;;;8.60;;
30020;SDS011;16861;52.294;7.760;2023-04-06T08:32:18;11.77;;;8.00;;
30020;SDS011;16861;52.294;7.760;2023-04-06T08:34:44;13.05;;;8.10;;
30020;SDS011;16861;52.294;7.760;2023-04-06T08:37:11;12.43;;;7.85;;
30020;SDS011;16861;52.294;7.760;2023-04-06T08:39:38;12.95;;;7.25;;
30020;SDS011;16861;52.294;7.760;2023-04-06T08:42:10;14.43;;;7.78;;
30020;SDS011;16861;52.294;7.760;2023-04-06T08:44:41;11.45;;;7.68;;
30020;SDS011;16861;52.294;7.760;2023-04-06T08:47:09;12.63;;;7.60;;
30020;SDS011;16861;52.294;7.760;2023-04-06T08:49:37;12.45;;;7.88;;
30020;SDS011;16861;52.294;7.760;2023-04-06T08:52:05;11.98;;;7.60;;
30020;SDS011;16861;52.294;7.760;2023-04-06T08:54:34;11.85;;;7.38;;
30020;SDS011;16861;52.294;7.760;2023-04-06T08:57:01;13.82;;;7.68;;
30020;SDS011;16861;52.294;7.760;2023-04-06T08:59:28;15.30;;;8.70;;
30020;SDS011;16861;52.294;7.760;2023-04-06T09:01:56;12.98;;;7.78;;
30020;SDS011;16861;52.294;7.760;2023-04-06T09:04:23;14.23;;;8.85;;
30020;SDS011;16861;52.294;7.760;2023-04-06T09:06:49;14.73;;;8.10;;
30020;SDS011;16861;52.294;7.760;2023-04-06T09:09:16;10.93;;;7.82;;
30020;SDS011;16861;52.294;7.760;2023-04-06T09:11:43;12.70;;;7.57;;
30020;SDS011;16861;52.294;7.760;2023-04-06T09:14:10;11.25;;;8.00;;
30020;SDS011;16861;52.294;7.760;2023-04-06T09:16:40;12.73;;;8.27;;
30020;SDS011;16861;52.294;7.760;2023-04-06T09:19:08;10.23;;;7.07;;
30020;SDS011;16861;52.294;7.760;2023-04-06T09:21:36;9.55;;;7.03;;
30020;SDS011;16861;52.294;7.760;2023-04-06T09:24:03;12.15;;;7.72;;
30020;SDS011;16861;52.294;7.760;2023-04-06T09:26:30;15.32;;;8.00;;
30020;SDS011;16861;52.294;7.760;2023-04-06T09:29:00;9.57;;;7.18;;
30020;SDS011;16861;52.294;7.760;2023-04-06T09:31:28;12.70;;;8.07;;
30020;SDS011;16861;52.294;7.760;2023-04-06T09:33:56;15.75;;;8.55;;
30020;SDS011;16861;52.294;7.760;2023-04-06T09:36:33;12.23;;;8.20;;
30020;SDS011;16861;52.294;7.760;2023-04-06T09:39:02;10.70;;;8.15;;
30020;SDS011;16861;52.294;7.760;2023-04-06T09:44:10;12.68;;;8.68;;
30020;SDS011;16861;52.294;7.760;2023-04-06T09:46:38;13.32;;;8.93;;
30020;SDS011;16861;52.294;7.760;2023-04-06T09:49:27;14.75;;;9.38;;
30020;SDS011;16861;52.294;7.760;2023-04-06T09:51:59;13.55;;;8.95;;
30020;SDS011;16861;52.294;7.760;2023-04-06T09:54:32;11.32;;;8.27;;
30020;SDS011;16861;52.294;7.760;2023-04-06T09:57:11;12.48;;;8.38;;
30020;SDS011;16861;52.294;7.760;2023-04-06T10:00:05;12.52;;;9.35;;
30020;SDS011;16861;52.294;7.760;2023-04-06T10:02:41;14.00;;;9.53;;
30020;SDS011;16861;52.294;7.760;2023-04-06T10:08:30;14.33;;;9.80;;
30020;SDS011;16861;52.294;7.760;2023-04-06T10:11:01;17.13;;;11.00;;
30020;SDS011;16861;52.294;7.760;2023-04-06T10:13:28;19.50;;;11.45;;
30020;SDS011;16861;52.294;7.760;2023-04-06T10:15:54;18.48;;;11.57;;
30020;SDS011;16861;52.294;7.760;2023-04-06T10:18:21;14.60;;;10.38;;
30020;SDS011;16861;52.294;7.760;2023-04-06T10:20:49;15.98;;;11.30;;
30020;SDS011;16861;52.294;7.760;2023-04-06T10:23:24;14.90;;;10.60;;
30020;SDS011;16861;52.294;7.760;2023-04-06T10:25:57;14.75;;;10.82;;
30020;SDS011;16861;52.294;7.760;2023-04-06T10:28:30;19.50;;;13.07;;
30020;SDS011;16861;52.294;7.760;2023-04-06T10:31:04;20.40;;;13.30;;
30020;SDS011;16861;52.294;7.760;2023-04-06T10:33:31;17.83;;;12.50;;
30020;SDS011;16861;52.294;7.760;2023-04-06T10:36:08;19.85;;;14.43;;
30020;SDS011;16861;52.294;7.760;2023-04-06T10:38:37;21.95;;;14.50;;
30020;SDS011;16861;52.294;7.760;2023-04-06T10:41:09;21.05;;;14.80;;
30020;SDS011;16861;52.294;7.760;2023-04-06T10:43:40;20.70;;;13.90;;
30020;SDS011;16861;52.294;7.760;2023-04-06T10:46:08;20.15;;;15.13;;
30020;SDS011;16861;52.294;7.760;2023-04-06T10:48:36;19.83;;;15.05;;
30020;SDS011;16861;52.294;7.760;2023-04-06T10:51:08;18.67;;;14.32;;
30020;SDS011;16861;52.294;7.760;2023-04-06T10:53:37;17.73;;;12.90;;
30020;SDS011;16861;52.294;7.760;2023-04-06T10:56:09;19.88;;;15.02;;
30020;SDS011;16861;52.294;7.760;2023-04-06T10:58:38;20.17;;;15.83;;
30020;SDS011;16861;52.294;7.760;2023-04-06T11:01:05;20.42;;;14.90;;
30020;SDS011;16861;52.294;7.760;2023-04-06T11:03:36;20.58;;;14.52;;
30020;SDS011;16861;52.294;7.760;2023-04-06T11:06:09;20.98;;;15.18;;
30020;SDS011;16861;52.294;7.760;2023-04-06T11:08:36;20.13;;;13.73;;
30020;SDS011;16861;52.294;7.760;2023-04-06T11:11:08;18.02;;;13.95;;
30020;SDS011;16861;52.294;7.760;2023-04-06T11:13:43;16.10;;;13.13;;
30020;SDS011;16861;52.294;7.760;2023-04-06T11:19:00;19.27;;;13.60;;
30020;SDS011;16861;52.294;7.760;2023-04-06T11:21:35;18.60;;;12.98;;
30020;SDS011;16861;52.294;7.760;2023-04-06T11:27:27;15.32;;;11.85;;
30020;SDS011;16861;52.294;7.760;2023-04-06T11:29:58;16.25;;;12.35;;
30020;SDS011;16861;52.294;7.760;2023-04-06T11:32:26;19.00;;;12.43;;
30020;SDS011;16861;52.294;7.760;2023-04-06T11:34:52;13.50;;;11.30;;
30020;SDS011;16861;52.294;7.760;2023-04-06T11:37:19;15.95;;;11.30;;
30020;SDS011;16861;52.294;7.760;2023-04-06T11:39:49;13.10;;;10.20;;
30020;SDS011;16861;52.294;7.760;2023-04-06T11:42:21;16.80;;;11.20;;
30020;SDS011;16861;52.294;7.760;2023-04-06T11:44:56;14.77;;;11.00;;
30020;SDS011;16861;52.294;7.760;2023-04-06T11:47:31;15.27;;;11.40;;
30020;SDS011;16861;52.294;7.760;2023-04-06T11:50:09;15.50;;;11.13;;
30020;SDS011;16861;52.294;7.760;2023-04-06T11:52:37;13.77;;;11.10;;
30020;SDS011;16861;52.294;7.760;2023-04-06T11:55:12;16.75;;;11.38;;
30020;SDS011;16861;52.294;7.760;2023-04-06T11:57:43;14.55;;;11.25;;
30020;SDS011;16861;52.294;7.760;2023-04-06T12:00:11;19.10;;;12.05;;
30020;SDS011;16861;52.294;7.760;2023-04-06T12:02:48;15.32;;;10.88;;
30020;SDS011;16861;52.294;7.760;2023-04-06T12:05:15;16.27;;;12.13;;
30020;SDS011;16861;52.294;7.760;2023-04-06T12:07:42;13.32;;;11.48;;
30020;SDS011;16861;52.294;7.760;2023-04-06T12:10:09;13.93;;;10.63;;
30020;SDS011;16861;52.294;7.760;2023-04-06T12:12:36;13.15;;;10.73;;
30020;SDS011;16861;52.294;7.760;2023-04-06T12:15:02;14.88;;;10.90;;
30020;SDS011;16861;52.294;7.760;2023-04-06T12:17:31;14.85;;;11.32;;
30020;SDS011;16861;52.294;7.760;2023-04-06T12:19:57;16.05;;;11.23;;
30020;SDS011;16861;52.294;7.760;2023-04-06T12:22:33;13.20;;;10.43;;
30020;SDS011;16861;52.294;7.760;2023-04-06T12:25:02;17.30;;;11.77;;
30020;SDS011;16861;52.294;7.760;2023-04-06T12:27:29;16.85;;;11.50;;
30020;SDS011;16861;52.294;7.760;2023-04-06T12:29:55;14.32;;;12.65;;
30020;SDS011;16861;52.294;7.760;2023-04-06T12:32:22;13.25;;;11.25;;
30020;SDS011;16861;52.294;7.760;2023-04-06T12:34:50;16.33;;;11.40;;
30020;SDS011;16861;52.294;7.760;2023-04-06T12:37:18;16.60;;;12.40;;
30020;SDS011;16861;52.294;7.760;2023-04-06T12:39:44;12.70;;;11.15;;
30020;SDS011;16861;52.294;7.760;2023-04-06T12:42:11;15.45;;;11.50;;
30020;SDS011;16861;52.294;7.760;2023-04-06T12:44:38;15.48;;;11.38;;
30020;SDS011;16861;52.294;7.760;2023-04-06T12:47:05;13.80;;;12.30;;
30020;SDS011;16861;52.294;7.760;2023-04-06T12:49:33;15.13;;;12.40;;
30020;SDS011;16861;52.294;7.760;2023-04-06T12:52:00;17.48;;;11.57;;
30020;SDS011;16861;52.294;7.760;2023-04-06T12:54:28;14.93;;;11.25;;
30020;SDS011;16861;52.294;7.760;2023-04-06T12:56:54;12.52;;;10.38;;
30020;SDS011;16861;52.294;7.760;2023-04-06T12:59:22;14.60;;;12.15;;
30020;SDS011;16861;52.294;7.760;2023-04-06T13:01:51;16.55;;;12.18;;
30020;SDS011;16861;52.294;7.760;2023-04-06T13:04:18;13.50;;;11.57;;
30020;SDS011;16861;52.294;7.760;2023-04-06T13:06:45;17.70;;;12.45;;
30020;SDS011;16861;52.294;7.760;2023-04-06T13:09:11;15.93;;;12.95;;
30020;SDS011;16861;52.294;7.760;2023-04-06T13:11:38;19.70;;;13.70;;
30020;SDS011;16861;52.294;7.760;2023-04-06T13:14:04;15.32;;;12.85;;
30020;SDS011;16861;52.294;7.760;2023-04-06T13:16:31;16.52;;;12.68;;
30020;SDS011;16861;52.294;7.760;2023-04-06T13:19:01;17.20;;;13.13;;
30020;SDS011;16861;52.294;7.760;2023-04-06T13:21:28;18.60;;;13.95;;
30020;SDS011;16861;52.294;7.760;2023-04-06T13:23:56;16.88;;;13.27;;
30020;SDS011;16861;52.294;7.760;2023-04-06T13:26:23;19.77;;;13.32;;
30020;SDS011;16861;52.294;7.760;2023-04-06T13:28:49;21.95;;;13.60;;
30020;SDS011;16861;52.294;7.760;2023-04-06T13:31:16;18.20;;;13.63;;
30020;SDS011;16861;52.294;7.760;2023-04-06T13:33:42;18.42;;;13.40;;
30020;SDS011;16861;52.294;7.760;2023-04-06T13:36:09;18.27;;;13.60;;
30020;SDS011;16861;52.294;7.760;2023-04-06T13:38:36;15.15;;;12.38;;
30020;SDS011;16861;52.294;7.760;2023-04-06T13:41:05;15.45;;;11.77;;
30020;SDS011;16861;52.294;7.760;2023-04-06T13:43:32;17.67;;;12.05;;
30020;SDS011;16861;52.294;7.760;2023-04-06T13:45:58;14.75;;;11.88;;
30020;SDS011;16861;52.294;7.760;2023-04-06T13:48:27;16.50;;;12.48;;
30020;SDS011;16861;52.294;7.760;2023-04-06T13:50:53;15.52;;;11.15;;
30020;SDS011;16861;52.294;7.760;2023-04-06T13:53:20;13.23;;;10.68;;
30020;SDS011;16861;52.294;7.760;2023-04-06T13:55:53;14.98;;;10.55;;
30020;SDS011;16861;52.294;7.760;2023-04-06T13:58:20;14.02;;;10.85;;
30020;SDS011;16861;52.294;7.760;2023-04-06T14:00:47;13.68;;;9.60;;
30020;SDS011;16861;52.294;7.760;2023-04-06T14:03:14;16.63;;;10.48;;
30020;SDS011;16861;52.294;7.760;2023-04-06T14:05:40;12.93;;;10.07;;
30020;SDS011;16861;52.294;7.760;2023-04-06T14:08:07;13.85;;;10.18;;
30020;SDS011;16861;52.294;7.760;2023-04-06T14:10:37;15.45;;;10.70;;
30020;SDS011;16861;52.294;7.760;2023-04-06T14:13:04;14.50;;;10.18;;
30020;SDS011;16861;52.294;7.760;2023-04-06T14:15:31;14.38;;;10.63;;
30020;SDS011;16861;52.294;7.760;2023-04-06T14:17:58;13.65;;;10.13;;
30020;SDS011;16861;52.294;7.760;2023-04-06T14:20:24;13.27;;;10.25;;
30020;SDS011;16861;52.294;7.760;2023-04-06T14:22:51;16.17;;;11.60;;
30020;SDS011;16861;52.294;7.760;2023-04-06T14:25:18;16.80;;;12.27;;
30020;SDS011;16861;52.294;7.760;2023-04-06T14:27:45;15.15;;;11.27;;
30020;SDS011;16861;52.294;7.760;2023-04-06T14:30:11;17.50;;;11.48;;
30020;SDS011;16861;52.294;7.760;2023-04-06T14:32:38;16.83;;;11.57;;
30020;SDS011;16861;52.294;7.760;2023-04-06T14:35:05;14.65;;;11.15;;
30020;SDS011;16861;52.294;7.760;2023-04-06T14:37:33;15.60;;;11.20;;
30020;SDS011;16861;52.294;7.760;2023-04-06T14:39:59;16.05;;;11.15;;
30020;SDS011;16861;52.294;7.760;2023-04-06T14:42:26;14.50;;;11.02;;
30020;SDS011;16861;52.294;7.760;2023-04-06T14:44:52;15.20;;;11.30;;
30020;SDS011;16861;52.294;7.760;2023-04-06T14:47:19;14.23;;;11.35;;